עמוד ראשי
METAR-TAF:

METAR-TAF

שדות תעופה :

נמל התעופה הבינלאומי טניאנטה לואיס קנדלריה

בארילוצ'ה, ארגנטינה

קו רוחב: 41-09S, קו אורך: 071-10W, גובה: 845מטר

תצפית מזג אוויר נוכחית

הדו"ח נערך לפני 11דקות, בשעה 21:00 UTC
רוח 13קשר מכיוון מערב/צפון-מערב
טמפרטורת 7 צלסיוס
לחות 76%
לחץ 1010 hPa
ראות 10 קילומטר או יותר
עננים פזורים בגובה 4000רגל

METAR: SAZS 142100Z 29013KT 9999 SCT040 07/03 Q1010

זמן: 18:11 (21:11 UTC)

תחזית

הדו"ח נערך לפני 4 שעות ו 11דקות, בשעה 17:00 UTC
תחזית בתוקף מ 14 ב 18 UTC עד 15 ב 18 UTC
רוח 15קשר מכיוון מערב/צפון-מערב
ראות 10 קילומטר או יותר
עננים פזורים בגובה 4000רגל
יעשה מ
14 ב 23 UTC עד 15 ב 01 UTC
עננים בינוניים בגובה 1000רגל
מעונן בגובה 2000רגל
זמנית מ -
14 ב 23 UTC עד 15 ב 07 UTC
ראות: 8000מטר
גשם קל
יעשה מ
15 ב 07 UTC עד 15 ב 09 UTC
ראות: 5000מטר
עננים בינוניים בגובה 2000רגל
אד,

TAF: SAZS 141700Z 1418/1518 29015KT 9999 SCT040 TX08/1418Z TN00/1511Z BECMG 1423/1501 BKN010 OVC020 TEMPO 1423/1507 8000 -RA BECMG 1507/1509 5000 BR BKN020

תצפיות ותחזיות מזג אוויר לגבי יותר מ- 4,000 שדות תעופה ברחבי העולם. דוחות METAR ו- TAF.

התחנות הזמינות מסומנות בנקודות צהובות ואדומות על גבי המפה.

העבר את העכבר לנקודה הצבעונית על מנת לראות את שם התחנה.

לאחר מכן, לחץ כדי לראות את תוכן ואת תחזיות מזג האוויר.

כדי לשנות את המפה: לחץ על הכפתורים הירוקים עם הפלוס השחור כדי להתקרב; על הכפתור הירוק עם המקף כדי להתרחק; או בחיצים הירוקים למפות סמוכות.


METAR-TAF: